createdAt,value
2022-09-10T00:05:47.278Z,2.20
2022-09-10T00:11:42.067Z,2.33
2022-09-10T00:17:36.706Z,2.60
2022-09-10T00:23:31.846Z,2.43
2022-09-10T00:29:25.111Z,2.30
2022-09-10T00:35:20.194Z,2.00
2022-09-10T00:41:15.273Z,2.57
2022-09-10T00:47:14.114Z,2.67
2022-09-10T00:53:13.068Z,2.30
2022-09-10T00:59:11.104Z,2.47
2022-09-10T01:05:06.005Z,2.20
2022-09-10T01:11:11.578Z,2.40
2022-09-10T01:17:15.797Z,2.23
2022-09-10T01:23:43.477Z,2.23
2022-09-10T01:29:44.856Z,2.50
2022-09-10T01:35:43.456Z,2.33
2022-09-10T01:41:37.408Z,2.10
2022-09-10T01:48:04.708Z,2.50
2022-09-10T01:54:15.652Z,2.10
2022-09-10T02:00:12.005Z,2.20
2022-09-10T02:06:13.044Z,1.90
2022-09-10T02:12:08.407Z,2.13
2022-09-10T02:18:16.011Z,1.90
2022-09-10T02:24:12.886Z,1.93
2022-09-10T02:30:09.294Z,1.90
2022-09-10T02:36:05.357Z,2.10
2022-09-10T02:42:02.227Z,2.23
2022-09-10T02:47:56.200Z,2.77
2022-09-10T02:53:50.542Z,2.33
2022-09-10T02:59:45.375Z,2.10
2022-09-10T03:05:39.139Z,2.43
2022-09-10T03:11:32.486Z,2.70
2022-09-10T03:17:27.535Z,2.50
2022-09-10T03:23:21.203Z,2.10
2022-09-10T03:29:15.838Z,2.20
2022-09-10T03:35:12.926Z,2.27
2022-09-10T03:41:05.978Z,2.70
2022-09-10T03:46:59.435Z,2.30
2022-09-10T03:52:54.980Z,2.10
2022-09-10T03:58:49.228Z,2.50
2022-09-10T04:04:42.820Z,2.30
2022-09-10T04:10:37.485Z,2.50
2022-09-10T04:16:31.503Z,2.83
2022-09-10T04:22:25.112Z,2.60
2022-09-10T04:28:20.216Z,2.87
2022-09-10T04:34:16.695Z,3.07
2022-09-10T04:40:11.288Z,3.27
2022-09-10T04:46:06.343Z,2.53
2022-09-10T04:52:00.797Z,2.60
2022-09-10T04:57:54.702Z,2.67
2022-09-10T05:03:49.798Z,2.40
2022-09-10T05:09:42.839Z,2.50
2022-09-10T05:15:41.875Z,3.07
2022-09-10T05:21:37.350Z,2.90
2022-09-10T05:27:30.355Z,2.80
2022-09-10T05:33:23.457Z,3.30
2022-09-10T05:39:18.056Z,2.40
2022-09-10T05:45:12.979Z,3.10
2022-09-10T05:51:07.454Z,3.13
2022-09-10T05:57:01.767Z,2.70
2022-09-10T06:02:57.330Z,2.73
2022-09-10T06:08:58.415Z,3.07
2022-09-10T06:15:04.990Z,3.20
2022-09-10T06:21:05.829Z,2.60
2022-09-10T06:26:59.736Z,3.40
2022-09-10T06:32:57.883Z,2.97
2022-09-10T06:38:58.501Z,2.67
2022-09-10T06:44:52.022Z,4.37
2022-09-10T06:50:59.907Z,3.20
2022-09-10T06:57:01.382Z,3.37
2022-09-10T07:02:56.131Z,2.83
2022-09-10T07:08:55.682Z,5.07
2022-09-10T07:14:49.453Z,4.60
2022-09-10T07:20:43.738Z,3.50
2022-09-10T07:26:38.820Z,4.40
2022-09-10T07:32:33.910Z,3.40
2022-09-10T07:38:34.013Z,4.77
2022-09-10T07:44:28.758Z,3.90
2022-09-10T07:50:26.875Z,5.27
2022-09-10T07:56:22.493Z,4.33
2022-09-10T08:02:17.790Z,6.00
2022-09-10T08:08:19.990Z,6.40
2022-09-10T08:14:14.145Z,5.40
2022-09-10T08:20:13.831Z,4.93
2022-09-10T08:26:10.241Z,6.37
2022-09-10T08:32:05.405Z,7.17
2022-09-10T08:38:00.122Z,7.37
2022-09-10T08:43:57.317Z,6.40
2022-09-10T08:49:57.230Z,8.07
2022-09-10T08:55:52.443Z,7.90
2022-09-10T09:01:50.636Z,9.30
2022-09-10T09:07:44.631Z,8.70
2022-09-10T09:14:05.048Z,9.00
2022-09-10T09:20:07.975Z,11.03
2022-09-10T09:26:12.688Z,9.63
2022-09-10T09:32:16.290Z,9.27
2022-09-10T09:38:19.031Z,9.80
2022-09-10T09:44:22.865Z,10.67
2022-09-10T09:50:18.752Z,9.83
2022-09-10T09:56:18.564Z,10.50
2022-09-10T10:02:14.956Z,10.70
2022-09-10T10:08:31.235Z,12.53
2022-09-10T10:14:38.482Z,11.40
2022-09-10T10:20:41.667Z,9.90
2022-09-10T10:26:38.702Z,10.67
2022-09-10T10:32:52.856Z,10.83
2022-09-10T10:38:50.698Z,9.70
2022-09-10T10:45:00.005Z,11.00
2022-09-10T10:50:59.400Z,8.67
2022-09-10T10:57:03.542Z,8.53
2022-09-10T11:03:05.885Z,10.73
2022-09-10T11:09:03.156Z,9.63
2022-09-10T11:15:01.728Z,9.23
2022-09-10T11:21:04.525Z,8.10
2022-09-10T11:27:04.001Z,8.20
2022-09-10T11:33:03.041Z,7.40
2022-09-10T11:39:08.662Z,7.70
2022-09-10T11:45:08.648Z,6.37
2022-09-10T11:51:04.241Z,5.00
2022-09-10T11:57:02.050Z,5.70
2022-09-10T12:03:36.230Z,4.40
2022-09-10T12:09:37.694Z,4.23
2022-09-10T12:15:34.747Z,3.90
2022-09-10T12:21:34.170Z,4.40
2022-09-10T12:27:46.213Z,4.40
2022-09-10T12:34:12.677Z,4.10
2022-09-10T12:40:46.200Z,3.97
2022-09-10T12:46:44.810Z,2.70
2022-09-10T12:52:52.782Z,2.90
2022-09-10T12:58:59.631Z,2.53
2022-09-10T13:04:59.619Z,2.93
2022-09-10T13:11:13.855Z,2.77
2022-09-10T13:17:29.511Z,3.07
2022-09-10T13:23:25.323Z,2.40
2022-09-10T13:29:35.234Z,2.47
2022-09-10T13:36:01.702Z,2.57
2022-09-10T13:42:13.481Z,3.03
2022-09-10T13:48:15.119Z,2.17
2022-09-10T13:54:14.112Z,2.17
2022-09-10T14:00:19.894Z,2.60
2022-09-10T14:06:17.306Z,3.07
2022-09-10T14:12:14.175Z,3.00
2022-09-10T14:18:12.119Z,4.50
2022-09-10T14:24:05.420Z,3.87
2022-09-10T14:30:17.187Z,4.40
2022-09-10T14:36:21.994Z,4.67
2022-09-10T14:42:27.533Z,4.20
2022-09-10T14:48:37.357Z,4.50
2022-09-10T14:54:34.686Z,4.77
2022-09-10T15:00:28.648Z,5.30
2022-09-10T15:06:26.049Z,4.73
2022-09-10T15:12:25.206Z,4.40
2022-09-10T15:18:18.195Z,4.17
2022-09-10T15:24:15.794Z,3.80
2022-09-10T15:30:10.858Z,3.50
2022-09-10T15:36:05.083Z,3.93
2022-09-10T15:41:59.674Z,3.60
2022-09-10T15:47:54.594Z,3.67
2022-09-10T15:53:47.406Z,4.73
2022-09-10T15:59:40.929Z,6.60
2022-09-10T16:05:35.313Z,3.30
2022-09-10T16:11:28.915Z,8.13
2022-09-10T16:17:22.176Z,5.60
2022-09-10T16:23:17.106Z,4.03
2022-09-10T16:29:15.064Z,4.70
2022-09-10T16:35:08.597Z,4.60
2022-09-10T16:41:04.034Z,4.20
2022-09-10T16:46:58.037Z,4.33
2022-09-10T16:52:52.554Z,5.00
2022-09-10T16:58:49.586Z,4.03
2022-09-10T17:04:42.969Z,4.13
2022-09-10T17:10:36.218Z,4.87
2022-09-10T17:16:32.962Z,3.60
2022-09-10T17:22:27.342Z,3.60
2022-09-10T17:28:20.195Z,3.60
2022-09-10T17:34:15.892Z,3.87
2022-09-10T17:40:10.286Z,3.00
2022-09-10T17:46:04.498Z,3.37
2022-09-10T17:52:00.516Z,3.70
2022-09-10T17:57:53.790Z,3.40
2022-09-10T18:03:47.226Z,4.10
2022-09-10T18:09:41.806Z,4.20
2022-09-10T18:15:35.247Z,7.40
2022-09-10T18:21:31.629Z,8.20
2022-09-10T18:27:26.697Z,7.37
2022-09-10T18:33:19.979Z,8.13
2022-09-10T18:39:14.237Z,8.57
2022-09-10T18:45:10.128Z,10.03
2022-09-10T18:51:06.693Z,11.50
2022-09-10T18:56:59.997Z,11.97
2022-09-10T19:02:55.706Z,13.37
2022-09-10T19:08:50.164Z,15.00
2022-09-10T19:14:43.482Z,17.40
2022-09-10T19:20:38.926Z,17.73
2022-09-10T19:26:35.037Z,18.40
2022-09-10T19:32:28.259Z,19.10
2022-09-10T19:38:37.107Z,18.90
2022-09-10T19:44:31.562Z,21.03
2022-09-10T19:50:24.673Z,18.53
2022-09-10T19:56:21.637Z,19.77
2022-09-10T20:02:15.024Z,20.07
2022-09-10T20:08:10.032Z,19.13
2022-09-10T20:14:08.230Z,21.53
2022-09-10T20:20:03.214Z,22.80
2022-09-10T20:25:56.122Z,23.33
2022-09-10T20:31:50.677Z,23.07
2022-09-10T20:37:43.928Z,22.43
2022-09-10T20:43:37.890Z,23.57
2022-09-10T20:49:32.481Z,24.77
2022-09-10T20:55:25.704Z,25.40
2022-09-10T21:01:20.121Z,25.10
2022-09-10T21:07:15.372Z,24.10
2022-09-10T21:13:09.961Z,25.97
2022-09-10T21:19:04.754Z,24.57
2022-09-10T21:24:59.310Z,23.97
2022-09-10T21:30:52.607Z,24.80
2022-09-10T21:36:45.881Z,22.10
2022-09-10T21:42:40.490Z,26.13
2022-09-10T21:48:36.222Z,24.83
2022-09-10T21:54:29.560Z,25.07
2022-09-10T22:00:25.906Z,24.97
2022-09-10T22:06:23.314Z,25.60
2022-09-10T22:12:16.551Z,24.90
2022-09-10T22:18:11.290Z,26.10
2022-09-10T22:24:04.173Z,25.07
2022-09-10T22:29:57.752Z,25.17
2022-09-10T22:35:52.380Z,25.50
2022-09-10T22:41:46.483Z,25.43
2022-09-10T22:47:39.703Z,28.30
2022-09-10T22:53:34.407Z,31.00
2022-09-10T22:59:28.100Z,30.07
2022-09-10T23:05:21.350Z,28.67
2022-09-10T23:11:17.352Z,29.07
2022-09-10T23:17:10.571Z,30.10
2022-09-10T23:23:04.157Z,28.80
2022-09-10T23:29:00.701Z,30.77
2022-09-10T23:34:53.928Z,28.43
2022-09-10T23:40:47.506Z,29.27
2022-09-10T23:46:42.211Z,28.93
2022-09-10T23:52:35.499Z,29.23
2022-09-10T23:58:28.737Z,30.30
